• Join FlightAware (Why Join?)
  • Login
  • US Flag 
10:09PM EDT


 

Airport Tracker/Info


-or-


 

Live Flight TrackerFlight Track Log ✈ EJA749 ✈ 17-Nov-2013 ✈ KHPN - KMCO

Flight Track Log - Related Links

Times and Time Zones

All times are in EST time to prevent confusion due to time zone crossing. See the EJA749 flight status page for this flight to view local times or setup timezone preferences in your user account.

Time Position Orientation Groundspeed Altitude Reporting Facility
EST Latitude Longitude Course Direction KTS MPH feet Rate Location/Type
07:31AM 41.0333 -73.7167 252° West 197 227 2,500  Level New York TRACON
07:32AM 41.0167 -73.7833 252° West 203 234 4,800 3,420 Climbing New York TRACON
07:33AM 40.9833 -73.8500 236° Southwest 245 282 9,400 3,360 Climbing New York TRACON
07:34AM 40.9167 -73.9167 217° Southwest 291 335 11,600 1,260 Climbing New York TRACON
07:35AM 40.8500 -73.9833 217° Southwest 321 369 12,000 180 Climbing New York TRACON
07:36AM 40.7667 -74.0333 204° Southwest 335 386 12,000 1,020 Level New York TRACON
07:39AM 40.5556 -74.1308 199° South 359 413 15,600 1,860 Climbing New York Center
07:40AM 40.4631 -74.1536 191° South 350 403 18,500 2,460 Climbing New York Center
07:41AM 40.3689 -74.1733 189° South 361 415 20,600 2,280 Climbing New York Center
07:42AM 40.2575 -74.2006 191° South 388 447 23,100 1,680 Climbing New York Center
07:43AM 40.1611 -74.2881 215° Southwest 399 459 24,000 360 Climbing New York Center
07:44AM 39.9708 -74.4789 218° Southwest 424 488 24,300 900 Climbing Washington Center
07:46AM 39.8697 -74.5722 215° Southwest 439 505 26,700 2,160 Climbing Washington Center
07:46AM 39.7600 -74.6739 215° Southwest 445 512 28,700 1,980 Climbing Washington Center
07:48AM 39.6628 -74.7667 216° Southwest 445 512 30,700 1,980 Climbing Washington Center
07:49AM 39.5675 -74.8594 217° Southwest 445 512 32,800 1,800 Climbing Washington Center
07:49AM 39.4636 -74.9303 208° Southwest 440 506 34,300 1,500 Climbing Washington Center
07:51AM 39.3517 -74.9983 205° Southwest 440 506 35,800 1,320 Climbing Washington Center
07:51AM 39.2456 -75.0636 205° Southwest 435 501 37,000 1,080 Climbing Washington Center
07:52AM 39.1394 -75.1314 206° Southwest 435 501 38,000 480 Climbing Washington Center
07:54AM 39.0314 -75.1989 206° Southwest 430 495 38,000  Level Washington Center
07:55AM 38.9233 -75.2661 206° Southwest 430 495 38,000  Level Washington Center
07:55AM 38.8131 -75.3358 206° Southwest 435 501 38,000  Level Washington Center
07:56AM 38.7006 -75.4003 204° Southwest 441 507 38,000  Level Washington Center
07:57AM 38.5900 -75.4694 206° Southwest 447 514 38,000  Level Washington Center
07:59AM 38.4797 -75.5333 204° Southwest 447 514 38,000  Level Washington Center
08:00AM 38.3669 -75.6022 206° Southwest 447 514 38,000  Level Washington Center
08:00AM 38.2692 -75.6578 204° Southwest 447 514 38,000  Level Washington Center
08:01AM 38.1583 -75.7239 205° Southwest 442 509 38,000  Level Washington Center
08:02AM 38.0375 -75.8028 207° Southwest 442 509 38,000  Level Washington Center
08:04AM 37.9350 -75.8578 203° Southwest 442 509 38,000  Level Washington Center
08:05AM 37.8244 -75.9203 204° Southwest 442 509 38,000  Level Washington Center
08:06AM 37.7094 -75.9986 208° Southwest 436 502 38,000  Level Washington Center
08:06AM 37.5986 -76.0611 204° Southwest 431 496 38,000  Level Washington Center
08:08AM 37.4878 -76.1258 205° Southwest 431 496 38,000  Level Washington Center
08:09AM 37.3856 -76.1800 203° Southwest 438 504 38,000  Level Washington Center
08:10AM 37.2725 -76.2444 204° Southwest 443 510 38,000  Level Washington Center
08:10AM 37.1658 -76.3061 205° Southwest 443 510 38,000  Level Washington Center
08:11AM 37.0464 -76.3594 200° South 443 510 38,000  Level Washington Center
08:13AM 36.9272 -76.4131 200° South 448 516 38,000  Level Washington Center
08:14AM 36.8081 -76.4636 199° South 453 521 38,000  Level Washington Center
08:15AM 36.6908 -76.5192 201° Southwest 453 521 38,000  Level Washington Center
08:16AM 36.5714 -76.5694 199° South 453 521 38,000  Level Washington Center
08:17AM 36.4522 -76.6197 199° South 453 521 38,000  Level Washington Center
08:18AM 36.3347 -76.6672 198° South 448 516 38,000  Level Washington Center
08:19AM 36.2156 -76.7169 199° South 448 516 38,000  Level Washington Center
08:19AM 36.0961 -76.7694 200° South 448 516 38,000  Level Washington Center
08:20AM 35.9786 -76.8164 198° South 448 516 38,000  Level Washington Center
08:22AM 35.8592 -76.8658 199° South 453 521 38,000  Level Washington Center
08:23AM 35.7397 -76.9150 198° South 453 521 38,000  Level Washington Center
08:23AM 35.6119 -76.9692 199° South 453 521 38,000  Level Washington Center
08:24AM 35.4903 -77.0181 198° South 453 521 38,000  Level Washington Center
08:25AM 35.3708 -77.0694 199° South 453 521 38,000  Level Washington Center
08:27AM 35.2511 -77.1181 198° South 453 521 38,000  Level Washington Center
08:27AM 35.1317 -77.1667 198° South 453 521 38,000  Level Washington Center
08:28AM 35.0078 -77.2175 199° South 453 521 38,000  Level Washington Center
08:30AM 34.8842 -77.2681 199° South 464 534 38,000  Level Washington Center
08:31AM 34.7644 -77.3214 200° South 464 534 38,000  Level Washington Center
08:32AM 34.6428 -77.3717 199° South 469 540 38,000  Level Washington Center
08:32AM 34.5208 -77.4194 198° South 469 540 38,000  Level Washington Center
08:33AM 34.3992 -77.4672 198° South 469 540 38,000  Level Washington Center
08:35AM 34.2900 -77.5125 199° South 469 540 38,000  Level Washington Center
08:35AM 34.1639 -77.5622 198° South 469 540 38,000  Level Washington Center
08:37AM 34.0422 -77.6094 198° South 469 540 38,000  Level Washington Center
08:38AM 33.8500 -77.6839 198° South 473 544 38,000  Level Jacksonville Center
08:39AM 33.7269 -77.7361 199° South 473 544 38,000  Level Jacksonville Center
08:40AM 33.5850 -77.7894 197° South 478 550 38,000  Level Jacksonville Center
08:41AM 33.4639 -77.8386 199° South 473 544 38,000  Level Jacksonville Center
08:42AM 33.3386 -77.8881 198° South 473 544 38,000  Level Jacksonville Center
08:43AM 33.2114 -77.9400 199° South 473 544 38,000  Level Jacksonville Center
08:44AM 33.0878 -77.9864 197° South 473 544 38,000  Level Jacksonville Center
08:45AM 32.9625 -78.0328 197° South 473 544 38,000  Level Jacksonville Center
08:46AM 32.8350 -78.0842 199° South 473 544 38,000  Level Jacksonville Center
08:47AM 32.7094 -78.1328 198° South 473 544 38,000  Level Jacksonville Center
08:48AM 32.5861 -78.1811 198° South 473 544 38,000  Level Jacksonville Center
08:49AM 32.4586 -78.2297 198° South 473 544 38,000  Level Jacksonville Center
08:50AM 32.3350 -78.2778 198° South 473 544 38,000  Level Jacksonville Center
08:51AM 32.2053 -78.3286 198° South 484 557 38,000  Level Jacksonville Center
08:52AM 32.0839 -78.3739 198° South 478 550 38,000  Level Jacksonville Center
08:53AM 31.9542 -78.4242 198° South 478 550 38,000  Level Jacksonville Center
08:54AM 31.8306 -78.4717 198° South 478 550 38,000  Level Jacksonville Center
08:55AM 31.7028 -78.5194 198° South 478 550 38,000  Level Jacksonville Center
08:56AM 31.5772 -78.5692 199° South 478 550 38,000  Level Jacksonville Center
08:57AM 31.4494 -78.6164 197° South 478 550 38,000  Level Jacksonville Center
08:58AM 31.3214 -78.6636 197° South 478 550 38,000  Level Jacksonville Center
08:59AM 31.1936 -78.7108 198° South 478 550 38,000  Level Jacksonville Center
09:00AM 31.0678 -78.7575 198° South 478 550 38,000  Level Jacksonville Center
09:01AM 30.9400 -78.8044 197° South 483 556 38,000 -180 Level Jacksonville Center
09:02AM 30.8142 -78.8533 198° South 483 556 37,700 -540 Descending Jacksonville Center
09:03AM 30.6925 -78.8972 197° South 473 544 37,000 -420 Descending Jacksonville Center
09:04AM 30.6239 -78.9231 198° South 474 545 37,000  Level Miami Center
09:05AM 30.4856 -78.9733 197° South 457 526 37,000  Level Miami Center
09:06AM 30.3578 -79.0236 199° South 472 543 37,000  Level Miami Center
09:07AM 30.2339 -79.0789 201° Southwest 477 549 37,000  Level Miami Center
09:08AM 30.1081 -79.1314 200° South 483 556 37,000  Level Miami Center
09:09AM 29.9861 -79.1933 204° Southwest 483 556 37,000 -540 Level Miami Center
09:10AM 29.8622 -79.2411 198° South 483 556 36,000 -1,020 Descending Miami Center
09:11AM 29.7403 -79.2981 202° Southwest 477 549 35,000 -540 Descending Miami Center
09:12AM 29.6144 -79.3478 199° South 477 549 35,000 -720 Level Miami Center
09:13AM 29.4986 -79.4047 203° Southwest 471 542 33,600 -1,620 Descending Miami Center
09:14AM 29.3811 -79.4519 199° South 458 527 31,800 -1,740 Descending Miami Center
09:15AM 29.2633 -79.4967 198° South 452 520 30,200 -1,860 Descending Miami Center
09:16AM 29.1456 -79.5508 202° Southwest 452 520 28,100 -2,100 Descending Miami Center
09:17AM 29.0708 -79.6442 228° Southwest 413 475 26,100 -2,040 Descending Miami Center
09:18AM 29.0369 -79.7739 253° West 399 459 24,100 -1,920 Descending Miami Center
09:19AM 28.9969 -79.8914 249° West 399 459 22,300 -1,860 Descending Miami Center
09:20AM 28.9589 -80.0067 249° West 405 466 20,400 -1,860 Descending Miami Center
09:21AM 28.9228 -80.1264 251° West 405 466 18,600 -1,800 Descending Miami Center
09:22AM 28.8667 -80.3000 250° West 341 392 15,900 -1,740 Descending Orlando TRACON
09:23AM 28.8333 -80.4000 249° West 336 387 14,300 -960 Descending Orlando TRACON
09:24AM 28.8167 -80.5000 259° West 337 388 14,000 -180 Descending Orlando TRACON
09:25AM 28.8000 -80.6167 261° West 332 382 14,000 -900 Level Orlando TRACON
09:26AM 28.7833 -80.7167 259° West 321 369 12,200 -2,100 Descending Orlando TRACON
09:27AM 28.7500 -80.8167 249° West 298 343 9,400 -2,340 Descending Orlando TRACON
09:28AM 28.7333 -80.9000 257° West 286 329 7,400 -1,740 Descending Orlando TRACON
09:29AM 28.7167 -80.9833 257° West 277 319 6,100 -720 Descending Orlando TRACON
09:30AM 28.7000 -81.0667 257° West 270 311 6,100 -60 Level Orlando TRACON
09:31AM 28.6667 -81.1500 246° West 269 310 6,000 -600 Descending Orlando TRACON
09:32AM 28.6333 -81.2167 240° Southwest 262 302 4,900 -1,320 Descending Orlando TRACON
09:33AM 28.5833 -81.2833 230° Southwest 253 291 3,400 -1,200 Descending Orlando TRACON
09:34AM 28.5500 -81.3167 221° Southwest 185 213 2,600 -960 Descending Orlando TRACON
09:35AM 28.5000 -81.3333 196° South 150 173 1,500 -1,020 Descending Orlando TRACON
09:36AM 28.4667 -81.3333 180° South 120 138 500 -1,020 Descending Orlando TRACON